Terminal Aerodrome Forecast
Issued by NWS Nashville, TN

Home | Current Version | Previous Version | Text Only | Print | Product List | Glossary On
Versions: 1 2 3 4 5 6 7 8 9 10 11 12 13 14 15 16 17 18
601
FTUS44 KOHX 180705 AAA
TAFBNA
TAF AMD
KBNA 180705Z 1807/1906 17004KT 3SM BR OVC003
      TEMPO 1807/1811 1SM BR
     FM181400 20005KT P6SM OVC015=

USA.gov is the U.S. government's official web portal to all federal, state and local government web resources and services.